Terminal Aerodrome Forecast
Issued by NWS

Home | Current Version | Previous Version | Graphics & Text | Print | Product List | Glossary On
Versions: 1 2 3 4 5 6 7 8 9 10 11 12 13 14 15 16 17 18
000
FTUS43 KGRB 182300
TAFCWA
TAF
KCWA 182338Z 1900/1924 34006KT P6SM SKC
     FM190100 VRB03KT P6SM SKC
     FM191200 19003KT P6SM BKN200
     FM191500 21007KT P6SM SCT080 BKN150
     FM191900 21009G15KT P6SM VCSH BKN080 OVC150
      AMD LTD TO CLD VIS AND WIND 1903/1911=

USA.gov is the U.S. government's official web portal to all federal, state and local government web resources and services.